sensor_id;sensor_type;location;lat;lon;timestamp;P1;durP1;ratioP1;P2;durP2;ratioP2
11141;SDS011;5625;50.122;19.864;2023-12-20T00:01:26;15.43;;;10.17;;
11141;SDS011;5625;50.122;19.864;2023-12-20T00:03:53;13.70;;;8.80;;
11141;SDS011;5625;50.122;19.864;2023-12-20T00:06:21;14.13;;;8.97;;
11141;SDS011;5625;50.122;19.864;2023-12-20T00:08:49;14.60;;;8.50;;
11141;SDS011;5625;50.122;19.864;2023-12-20T00:11:18;12.07;;;8.07;;
11141;SDS011;5625;50.122;19.864;2023-12-20T00:13:46;12.90;;;8.20;;
11141;SDS011;5625;50.122;19.864;2023-12-20T00:16:17;12.33;;;8.03;;
11141;SDS011;5625;50.122;19.864;2023-12-20T00:18:47;11.27;;;8.37;;
11141;SDS011;5625;50.122;19.864;2023-12-20T00:21:15;11.67;;;7.63;;
11141;SDS011;5625;50.122;19.864;2023-12-20T00:23:43;14.73;;;9.70;;
11141;SDS011;5625;50.122;19.864;2023-12-20T00:26:11;13.63;;;8.77;;
11141;SDS011;5625;50.122;19.864;2023-12-20T00:28:39;13.20;;;9.00;;
11141;SDS011;5625;50.122;19.864;2023-12-20T00:31:07;13.37;;;8.37;;
11141;SDS011;5625;50.122;19.864;2023-12-20T00:33:35;13.93;;;8.67;;
11141;SDS011;5625;50.122;19.864;2023-12-20T00:36:05;14.77;;;9.07;;
11141;SDS011;5625;50.122;19.864;2023-12-20T00:38:33;14.33;;;8.77;;
11141;SDS011;5625;50.122;19.864;2023-12-20T00:41:02;12.33;;;8.20;;
11141;SDS011;5625;50.122;19.864;2023-12-20T00:43:30;15.47;;;9.50;;
11141;SDS011;5625;50.122;19.864;2023-12-20T00:45:58;14.70;;;8.67;;
11141;SDS011;5625;50.122;19.864;2023-12-20T00:48:27;14.30;;;9.03;;
11141;SDS011;5625;50.122;19.864;2023-12-20T00:50:56;14.87;;;9.00;;
11141;SDS011;5625;50.122;19.864;2023-12-20T00:53:26;11.60;;;7.83;;
11141;SDS011;5625;50.122;19.864;2023-12-20T00:55:54;11.83;;;8.50;;
11141;SDS011;5625;50.122;19.864;2023-12-20T00:58:25;11.70;;;7.57;;
11141;SDS011;5625;50.122;19.864;2023-12-20T01:00:54;12.60;;;8.23;;
11141;SDS011;5625;50.122;19.864;2023-12-20T01:03:22;11.90;;;8.17;;
11141;SDS011;5625;50.122;19.864;2023-12-20T01:05:50;11.33;;;8.20;;
11141;SDS011;5625;50.122;19.864;2023-12-20T01:08:18;11.63;;;7.90;;
11141;SDS011;5625;50.122;19.864;2023-12-20T01:10:48;11.33;;;7.73;;
11141;SDS011;5625;50.122;19.864;2023-12-20T01:13:16;11.33;;;7.87;;
11141;SDS011;5625;50.122;19.864;2023-12-20T01:15:44;11.20;;;8.00;;
11141;SDS011;5625;50.122;19.864;2023-12-20T01:18:13;12.60;;;7.30;;
11141;SDS011;5625;50.122;19.864;2023-12-20T01:20:42;12.33;;;7.57;;
11141;SDS011;5625;50.122;19.864;2023-12-20T01:23:10;11.40;;;7.40;;
11141;SDS011;5625;50.122;19.864;2023-12-20T01:25:38;11.40;;;7.17;;
11141;SDS011;5625;50.122;19.864;2023-12-20T01:28:08;10.07;;;6.60;;
11141;SDS011;5625;50.122;19.864;2023-12-20T01:30:36;8.87;;;6.17;;
11141;SDS011;5625;50.122;19.864;2023-12-20T01:33:04;8.00;;;5.87;;
11141;SDS011;5625;50.122;19.864;2023-12-20T01:35:32;6.57;;;5.20;;
11141;SDS011;5625;50.122;19.864;2023-12-20T01:38:00;7.30;;;5.17;;
11141;SDS011;5625;50.122;19.864;2023-12-20T01:40:29;5.13;;;4.37;;
11141;SDS011;5625;50.122;19.864;2023-12-20T01:42:57;5.50;;;4.00;;
11141;SDS011;5625;50.122;19.864;2023-12-20T01:45:28;4.17;;;3.57;;
11141;SDS011;5625;50.122;19.864;2023-12-20T01:47:56;4.00;;;3.40;;
11141;SDS011;5625;50.122;19.864;2023-12-20T01:50:26;3.63;;;3.23;;
11141;SDS011;5625;50.122;19.864;2023-12-20T01:52:55;4.93;;;3.33;;
11141;SDS011;5625;50.122;19.864;2023-12-20T01:55:25;4.43;;;3.57;;
11141;SDS011;5625;50.122;19.864;2023-12-20T01:57:56;4.73;;;3.27;;
11141;SDS011;5625;50.122;19.864;2023-12-20T02:00:27;4.97;;;4.13;;
11141;SDS011;5625;50.122;19.864;2023-12-20T02:02:56;4.00;;;3.60;;
11141;SDS011;5625;50.122;19.864;2023-12-20T02:05:28;5.43;;;3.67;;
11141;SDS011;5625;50.122;19.864;2023-12-20T02:07:57;4.33;;;3.80;;
11141;SDS011;5625;50.122;19.864;2023-12-20T02:10:25;5.13;;;3.43;;
11141;SDS011;5625;50.122;19.864;2023-12-20T02:12:55;4.77;;;3.80;;
11141;SDS011;5625;50.122;19.864;2023-12-20T02:15:23;3.90;;;3.50;;
11141;SDS011;5625;50.122;19.864;2023-12-20T02:17:53;3.53;;;3.23;;
11141;SDS011;5625;50.122;19.864;2023-12-20T02:20:22;3.77;;;3.37;;
11141;SDS011;5625;50.122;19.864;2023-12-20T02:22:51;6.23;;;4.00;;
11141;SDS011;5625;50.122;19.864;2023-12-20T02:25:19;5.30;;;4.07;;
11141;SDS011;5625;50.122;19.864;2023-12-20T02:27:48;8.47;;;4.20;;
11141;SDS011;5625;50.122;19.864;2023-12-20T02:30:17;6.77;;;4.60;;
11141;SDS011;5625;50.122;19.864;2023-12-20T02:32:45;6.27;;;4.83;;
11141;SDS011;5625;50.122;19.864;2023-12-20T02:35:13;6.37;;;4.60;;
11141;SDS011;5625;50.122;19.864;2023-12-20T02:37:41;7.30;;;4.60;;
11141;SDS011;5625;50.122;19.864;2023-12-20T02:40:12;5.00;;;4.03;;
11141;SDS011;5625;50.122;19.864;2023-12-20T02:42:40;5.13;;;4.47;;
11141;SDS011;5625;50.122;19.864;2023-12-20T02:45:08;5.70;;;4.27;;
11141;SDS011;5625;50.122;19.864;2023-12-20T02:47:36;4.23;;;3.83;;
11141;SDS011;5625;50.122;19.864;2023-12-20T02:50:04;4.77;;;3.67;;
11141;SDS011;5625;50.122;19.864;2023-12-20T02:52:33;5.27;;;4.13;;
11141;SDS011;5625;50.122;19.864;2023-12-20T02:55:01;5.00;;;3.60;;
11141;SDS011;5625;50.122;19.864;2023-12-20T02:57:31;4.77;;;3.70;;
11141;SDS011;5625;50.122;19.864;2023-12-20T03:00:02;3.70;;;3.13;;
11141;SDS011;5625;50.122;19.864;2023-12-20T03:02:31;3.70;;;2.93;;
11141;SDS011;5625;50.122;19.864;2023-12-20T03:04:59;3.80;;;3.30;;
11141;SDS011;5625;50.122;19.864;2023-12-20T03:07:27;4.80;;;3.67;;
11141;SDS011;5625;50.122;19.864;2023-12-20T03:09:55;3.87;;;3.47;;
11141;SDS011;5625;50.122;19.864;2023-12-20T03:12:45;3.47;;;3.17;;
11141;SDS011;5625;50.122;19.864;2023-12-20T03:15:13;3.43;;;3.13;;
11141;SDS011;5625;50.122;19.864;2023-12-20T03:17:41;4.30;;;3.43;;
11141;SDS011;5625;50.122;19.864;2023-12-20T03:20:10;4.10;;;3.77;;
11141;SDS011;5625;50.122;19.864;2023-12-20T03:22:38;3.80;;;3.50;;
11141;SDS011;5625;50.122;19.864;2023-12-20T03:25:07;5.27;;;3.23;;
11141;SDS011;5625;50.122;19.864;2023-12-20T03:27:36;3.93;;;3.60;;
11141;SDS011;5625;50.122;19.864;2023-12-20T03:30:07;3.93;;;3.37;;
11141;SDS011;5625;50.122;19.864;2023-12-20T03:32:36;4.10;;;3.20;;
11141;SDS011;5625;50.122;19.864;2023-12-20T03:35:04;4.93;;;3.60;;
11141;SDS011;5625;50.122;19.864;2023-12-20T03:37:33;3.90;;;3.47;;
11141;SDS011;5625;50.122;19.864;2023-12-20T03:40:01;3.80;;;3.50;;
11141;SDS011;5625;50.122;19.864;2023-12-20T03:42:29;3.67;;;3.37;;
11141;SDS011;5625;50.122;19.864;2023-12-20T03:44:58;3.50;;;3.20;;
11141;SDS011;5625;50.122;19.864;2023-12-20T03:47:27;3.93;;;3.53;;
11141;SDS011;5625;50.122;19.864;2023-12-20T03:49:56;3.93;;;3.43;;
11141;SDS011;5625;50.122;19.864;2023-12-20T03:52:25;4.23;;;3.70;;
11141;SDS011;5625;50.122;19.864;2023-12-20T03:54:53;4.70;;;3.63;;
11141;SDS011;5625;50.122;19.864;2023-12-20T03:57:21;5.07;;;3.70;;
11141;SDS011;5625;50.122;19.864;2023-12-20T03:59:49;3.83;;;3.33;;
11141;SDS011;5625;50.122;19.864;2023-12-20T04:02:17;3.57;;;3.27;;
11141;SDS011;5625;50.122;19.864;2023-12-20T04:04:47;5.07;;;3.60;;
11141;SDS011;5625;50.122;19.864;2023-12-20T04:07:15;3.90;;;3.60;;
11141;SDS011;5625;50.122;19.864;2023-12-20T04:09:43;4.27;;;3.20;;
11141;SDS011;5625;50.122;19.864;2023-12-20T04:12:12;4.43;;;3.60;;
11141;SDS011;5625;50.122;19.864;2023-12-20T04:14:40;3.33;;;3.03;;
11141;SDS011;5625;50.122;19.864;2023-12-20T04:17:08;5.13;;;3.30;;
11141;SDS011;5625;50.122;19.864;2023-12-20T04:19:36;4.63;;;3.30;;
11141;SDS011;5625;50.122;19.864;2023-12-20T04:22:05;3.73;;;3.40;;
11141;SDS011;5625;50.122;19.864;2023-12-20T04:24:34;3.40;;;2.80;;
11141;SDS011;5625;50.122;19.864;2023-12-20T04:27:02;4.33;;;3.30;;
11141;SDS011;5625;50.122;19.864;2023-12-20T04:29:30;4.27;;;3.50;;
11141;SDS011;5625;50.122;19.864;2023-12-20T04:31:58;4.33;;;3.77;;
11141;SDS011;5625;50.122;19.864;2023-12-20T04:34:26;3.53;;;3.23;;
11141;SDS011;5625;50.122;19.864;2023-12-20T04:36:55;3.70;;;3.27;;
11141;SDS011;5625;50.122;19.864;2023-12-20T04:39:24;3.93;;;3.43;;
11141;SDS011;5625;50.122;19.864;2023-12-20T04:41:52;4.33;;;3.30;;
11141;SDS011;5625;50.122;19.864;2023-12-20T04:44:21;4.77;;;3.53;;
11141;SDS011;5625;50.122;19.864;2023-12-20T04:46:49;4.30;;;3.90;;
11141;SDS011;5625;50.122;19.864;2023-12-20T04:49:17;4.13;;;3.73;;
11141;SDS011;5625;50.122;19.864;2023-12-20T04:51:45;5.17;;;4.10;;
11141;SDS011;5625;50.122;19.864;2023-12-20T04:54:13;4.43;;;4.00;;
11141;SDS011;5625;50.122;19.864;2023-12-20T04:56:42;4.53;;;3.50;;
11141;SDS011;5625;50.122;19.864;2023-12-20T04:59:10;4.93;;;4.00;;
11141;SDS011;5625;50.122;19.864;2023-12-20T05:01:39;3.70;;;3.40;;
11141;SDS011;5625;50.122;19.864;2023-12-20T05:04:07;4.57;;;3.90;;
11141;SDS011;5625;50.122;19.864;2023-12-20T05:06:36;4.53;;;3.70;;
11141;SDS011;5625;50.122;19.864;2023-12-20T05:09:04;4.40;;;3.40;;
11141;SDS011;5625;50.122;19.864;2023-12-20T05:11:32;3.80;;;3.40;;
11141;SDS011;5625;50.122;19.864;2023-12-20T05:14:02;4.67;;;3.30;;
11141;SDS011;5625;50.122;19.864;2023-12-20T05:16:30;4.07;;;3.67;;
11141;SDS011;5625;50.122;19.864;2023-12-20T05:18:58;4.47;;;3.63;;
11141;SDS011;5625;50.122;19.864;2023-12-20T05:21:30;4.27;;;3.87;;
11141;SDS011;5625;50.122;19.864;2023-12-20T05:24:02;5.23;;;4.03;;
11141;SDS011;5625;50.122;19.864;2023-12-20T05:26:31;5.00;;;4.50;;
11141;SDS011;5625;50.122;19.864;2023-12-20T05:28:59;4.37;;;3.97;;
11141;SDS011;5625;50.122;19.864;2023-12-20T05:31:28;4.97;;;4.43;;
11141;SDS011;5625;50.122;19.864;2023-12-20T05:33:56;5.13;;;4.30;;
11141;SDS011;5625;50.122;19.864;2023-12-20T05:36:25;5.03;;;4.53;;
11141;SDS011;5625;50.122;19.864;2023-12-20T05:38:53;8.93;;;5.30;;
11141;SDS011;5625;50.122;19.864;2023-12-20T05:41:21;5.97;;;5.20;;
11141;SDS011;5625;50.122;19.864;2023-12-20T05:43:49;7.97;;;5.13;;
11141;SDS011;5625;50.122;19.864;2023-12-20T05:46:17;5.93;;;5.07;;
11141;SDS011;5625;50.122;19.864;2023-12-20T05:48:47;6.43;;;5.20;;
11141;SDS011;5625;50.122;19.864;2023-12-20T05:51:15;5.60;;;5.00;;
11141;SDS011;5625;50.122;19.864;2023-12-20T05:53:43;6.63;;;5.70;;
11141;SDS011;5625;50.122;19.864;2023-12-20T05:56:11;6.00;;;5.40;;
11141;SDS011;5625;50.122;19.864;2023-12-20T05:58:40;6.50;;;5.53;;
11141;SDS011;5625;50.122;19.864;2023-12-20T06:01:09;6.83;;;5.77;;
11141;SDS011;5625;50.122;19.864;2023-12-20T06:03:40;6.37;;;5.73;;
11141;SDS011;5625;50.122;19.864;2023-12-20T06:06:10;6.83;;;6.00;;
11141;SDS011;5625;50.122;19.864;2023-12-20T06:08:42;6.30;;;5.70;;
11141;SDS011;5625;50.122;19.864;2023-12-20T06:11:15;6.97;;;6.27;;
11141;SDS011;5625;50.122;19.864;2023-12-20T06:13:47;6.57;;;5.70;;
11141;SDS011;5625;50.122;19.864;2023-12-20T06:16:24;7.47;;;6.23;;
11141;SDS011;5625;50.122;19.864;2023-12-20T06:19:06;6.53;;;5.93;;
11141;SDS011;5625;50.122;19.864;2023-12-20T06:21:35;7.47;;;6.77;;
11141;SDS011;5625;50.122;19.864;2023-12-20T06:24:11;7.93;;;6.63;;
11141;SDS011;5625;50.122;19.864;2023-12-20T06:26:39;9.13;;;7.87;;
11141;SDS011;5625;50.122;19.864;2023-12-20T06:29:07;9.60;;;7.70;;
11141;SDS011;5625;50.122;19.864;2023-12-20T06:31:35;9.40;;;8.40;;
11141;SDS011;5625;50.122;19.864;2023-12-20T06:34:04;8.30;;;7.50;;
11141;SDS011;5625;50.122;19.864;2023-12-20T06:36:32;9.67;;;7.30;;
11141;SDS011;5625;50.122;19.864;2023-12-20T06:39:01;8.53;;;7.63;;
11141;SDS011;5625;50.122;19.864;2023-12-20T06:41:31;8.90;;;7.47;;
11141;SDS011;5625;50.122;19.864;2023-12-20T06:43:59;7.93;;;7.13;;
11141;SDS011;5625;50.122;19.864;2023-12-20T06:46:27;8.20;;;7.30;;
11141;SDS011;5625;50.122;19.864;2023-12-20T06:48:55;8.07;;;7.07;;
11141;SDS011;5625;50.122;19.864;2023-12-20T06:51:23;8.63;;;7.60;;
11141;SDS011;5625;50.122;19.864;2023-12-20T06:53:52;9.70;;;7.10;;
11141;SDS011;5625;50.122;19.864;2023-12-20T06:56:21;8.57;;;6.47;;
11141;SDS011;5625;50.122;19.864;2023-12-20T06:58:50;7.40;;;6.70;;
11141;SDS011;5625;50.122;19.864;2023-12-20T07:01:18;8.37;;;7.27;;
11141;SDS011;5625;50.122;19.864;2023-12-20T07:03:46;9.60;;;7.20;;
11141;SDS011;5625;50.122;19.864;2023-12-20T07:06:14;9.70;;;7.20;;
11141;SDS011;5625;50.122;19.864;2023-12-20T07:08:43;8.93;;;7.03;;
11141;SDS011;5625;50.122;19.864;2023-12-20T07:11:11;9.93;;;8.23;;
11141;SDS011;5625;50.122;19.864;2023-12-20T07:13:41;8.43;;;7.23;;
11141;SDS011;5625;50.122;19.864;2023-12-20T07:16:09;9.37;;;8.27;;
11141;SDS011;5625;50.122;19.864;2023-12-20T07:18:37;9.23;;;7.67;;
11141;SDS011;5625;50.122;19.864;2023-12-20T07:21:05;10.93;;;8.03;;
11141;SDS011;5625;50.122;19.864;2023-12-20T07:23:34;9.33;;;8.10;;
11141;SDS011;5625;50.122;19.864;2023-12-20T07:26:02;8.90;;;7.80;;
11141;SDS011;5625;50.122;19.864;2023-12-20T07:28:31;8.97;;;7.90;;
11141;SDS011;5625;50.122;19.864;2023-12-20T07:31:01;9.63;;;7.57;;
11141;SDS011;5625;50.122;19.864;2023-12-20T07:33:29;10.13;;;8.27;;
11141;SDS011;5625;50.122;19.864;2023-12-20T07:36:05;10.43;;;9.10;;
11141;SDS011;5625;50.122;19.864;2023-12-20T07:38:35;10.07;;;8.50;;
11141;SDS011;5625;50.122;19.864;2023-12-20T07:41:03;10.70;;;9.47;;
11141;SDS011;5625;50.122;19.864;2023-12-20T07:43:31;9.90;;;8.83;;
11141;SDS011;5625;50.122;19.864;2023-12-20T07:46:05;12.50;;;10.23;;
11141;SDS011;5625;50.122;19.864;2023-12-20T07:48:34;11.53;;;8.97;;
11141;SDS011;5625;50.122;19.864;2023-12-20T07:51:02;10.43;;;9.40;;
11141;SDS011;5625;50.122;19.864;2023-12-20T07:53:32;11.43;;;9.50;;
11141;SDS011;5625;50.122;19.864;2023-12-20T07:56:01;12.40;;;11.10;;
11141;SDS011;5625;50.122;19.864;2023-12-20T07:58:29;12.17;;;10.90;;
11141;SDS011;5625;50.122;19.864;2023-12-20T08:01:17;12.70;;;10.07;;
11141;SDS011;5625;50.122;19.864;2023-12-20T08:03:46;12.77;;;10.37;;
11141;SDS011;5625;50.122;19.864;2023-12-20T08:06:16;10.90;;;9.00;;
11141;SDS011;5625;50.122;19.864;2023-12-20T08:08:45;10.97;;;9.63;;
11141;SDS011;5625;50.122;19.864;2023-12-20T08:11:26;9.97;;;8.97;;
11141;SDS011;5625;50.122;19.864;2023-12-20T08:13:54;10.13;;;9.13;;
11141;SDS011;5625;50.122;19.864;2023-12-20T08:16:24;10.50;;;9.40;;
11141;SDS011;5625;50.122;19.864;2023-12-20T08:18:52;10.00;;;8.73;;
11141;SDS011;5625;50.122;19.864;2023-12-20T08:21:20;9.40;;;8.50;;
11141;SDS011;5625;50.122;19.864;2023-12-20T08:23:49;11.73;;;9.10;;
11141;SDS011;5625;50.122;19.864;2023-12-20T08:26:18;11.60;;;8.63;;
11141;SDS011;5625;50.122;19.864;2023-12-20T08:28:48;9.83;;;8.83;;
11141;SDS011;5625;50.122;19.864;2023-12-20T08:31:33;11.17;;;9.90;;
11141;SDS011;5625;50.122;19.864;2023-12-20T08:34:14;11.20;;;9.90;;
11141;SDS011;5625;50.122;19.864;2023-12-20T08:36:43;11.63;;;9.67;;
11141;SDS011;5625;50.122;19.864;2023-12-20T08:39:11;13.83;;;10.60;;
11141;SDS011;5625;50.122;19.864;2023-12-20T08:41:39;12.67;;;10.87;;
11141;SDS011;5625;50.122;19.864;2023-12-20T08:44:08;12.27;;;11.07;;
11141;SDS011;5625;50.122;19.864;2023-12-20T08:46:37;11.67;;;10.27;;
11141;SDS011;5625;50.122;19.864;2023-12-20T08:49:06;12.10;;;10.80;;
11141;SDS011;5625;50.122;19.864;2023-12-20T08:51:35;11.17;;;9.73;;
11141;SDS011;5625;50.122;19.864;2023-12-20T08:54:06;12.77;;;10.97;;
11141;SDS011;5625;50.122;19.864;2023-12-20T08:56:35;12.50;;;11.23;;
11141;SDS011;5625;50.122;19.864;2023-12-20T08:59:03;12.83;;;10.30;;
11141;SDS011;5625;50.122;19.864;2023-12-20T09:01:31;12.83;;;11.40;;
11141;SDS011;5625;50.122;19.864;2023-12-20T09:04:00;13.07;;;10.53;;
11141;SDS011;5625;50.122;19.864;2023-12-20T09:06:29;14.27;;;10.93;;
11141;SDS011;5625;50.122;19.864;2023-12-20T09:08:57;12.10;;;10.63;;
11141;SDS011;5625;50.122;19.864;2023-12-20T09:11:25;10.80;;;9.70;;
11141;SDS011;5625;50.122;19.864;2023-12-20T09:13:53;10.87;;;9.77;;
11141;SDS011;5625;50.122;19.864;2023-12-20T09:16:21;12.33;;;10.00;;
11141;SDS011;5625;50.122;19.864;2023-12-20T09:18:50;11.03;;;9.80;;
11141;SDS011;5625;50.122;19.864;2023-12-20T09:21:19;11.03;;;9.40;;
11141;SDS011;5625;50.122;19.864;2023-12-20T09:23:48;10.77;;;9.67;;
11141;SDS011;5625;50.122;19.864;2023-12-20T09:26:16;9.47;;;8.57;;
11141;SDS011;5625;50.122;19.864;2023-12-20T09:28:44;10.23;;;9.13;;
11141;SDS011;5625;50.122;19.864;2023-12-20T09:31:12;10.00;;;9.00;;
11141;SDS011;5625;50.122;19.864;2023-12-20T09:33:41;10.37;;;9.30;;
11141;SDS011;5625;50.122;19.864;2023-12-20T09:36:10;10.87;;;9.27;;
11141;SDS011;5625;50.122;19.864;2023-12-20T09:38:40;10.60;;;9.47;;
11141;SDS011;5625;50.122;19.864;2023-12-20T09:41:12;10.60;;;9.50;;
11141;SDS011;5625;50.122;19.864;2023-12-20T09:43:41;10.27;;;9.17;;
11141;SDS011;5625;50.122;19.864;2023-12-20T09:46:10;11.20;;;10.00;;
11141;SDS011;5625;50.122;19.864;2023-12-20T09:48:43;10.30;;;9.23;;
11141;SDS011;5625;50.122;19.864;2023-12-20T09:51:12;10.33;;;9.10;;
11141;SDS011;5625;50.122;19.864;2023-12-20T09:53:42;9.33;;;8.43;;
11141;SDS011;5625;50.122;19.864;2023-12-20T09:56:11;10.93;;;9.83;;
11141;SDS011;5625;50.122;19.864;2023-12-20T09:58:40;10.10;;;9.00;;
11141;SDS011;5625;50.122;19.864;2023-12-20T10:01:08;9.63;;;8.50;;
11141;SDS011;5625;50.122;19.864;2023-12-20T10:03:36;10.90;;;8.97;;
11141;SDS011;5625;50.122;19.864;2023-12-20T10:06:08;9.67;;;8.73;;
11141;SDS011;5625;50.122;19.864;2023-12-20T10:08:38;10.93;;;8.77;;
11141;SDS011;5625;50.122;19.864;2023-12-20T10:11:07;8.43;;;7.53;;
11141;SDS011;5625;50.122;19.864;2023-12-20T10:13:38;8.73;;;7.83;;
11141;SDS011;5625;50.122;19.864;2023-12-20T10:16:08;8.57;;;7.67;;
11141;SDS011;5625;50.122;19.864;2023-12-20T10:18:36;9.77;;;8.53;;
11141;SDS011;5625;50.122;19.864;2023-12-20T10:21:05;9.73;;;8.60;;
11141;SDS011;5625;50.122;19.864;2023-12-20T10:23:36;8.37;;;7.37;;
11141;SDS011;5625;50.122;19.864;2023-12-20T10:26:05;8.13;;;7.33;;
11141;SDS011;5625;50.122;19.864;2023-12-20T10:28:36;7.73;;;6.93;;
11141;SDS011;5625;50.122;19.864;2023-12-20T10:31:04;9.20;;;7.83;;
11141;SDS011;5625;50.122;19.864;2023-12-20T10:33:32;8.77;;;7.10;;
11141;SDS011;5625;50.122;19.864;2023-12-20T10:36:01;7.60;;;6.73;;
11141;SDS011;5625;50.122;19.864;2023-12-20T10:38:30;8.23;;;7.37;;
11141;SDS011;5625;50.122;19.864;2023-12-20T10:40:59;8.63;;;7.73;;
11141;SDS011;5625;50.122;19.864;2023-12-20T10:43:31;7.77;;;7.07;;
11141;SDS011;5625;50.122;19.864;2023-12-20T10:46:01;9.07;;;7.40;;
11141;SDS011;5625;50.122;19.864;2023-12-20T10:48:31;9.13;;;8.20;;
11141;SDS011;5625;50.122;19.864;2023-12-20T10:51:00;9.10;;;7.77;;
11141;SDS011;5625;50.122;19.864;2023-12-20T10:53:31;8.93;;;7.50;;
11141;SDS011;5625;50.122;19.864;2023-12-20T10:56:02;8.37;;;7.57;;
11141;SDS011;5625;50.122;19.864;2023-12-20T10:58:33;9.13;;;8.23;;
11141;SDS011;5625;50.122;19.864;2023-12-20T11:01:03;9.70;;;7.90;;
11141;SDS011;5625;50.122;19.864;2023-12-20T11:03:34;9.50;;;7.80;;
11141;SDS011;5625;50.122;19.864;2023-12-20T11:06:05;8.93;;;8.03;;
11141;SDS011;5625;50.122;19.864;2023-12-20T11:08:39;8.50;;;7.70;;
11141;SDS011;5625;50.122;19.864;2023-12-20T11:11:35;11.10;;;8.20;;
11141;SDS011;5625;50.122;19.864;2023-12-20T11:14:13;10.83;;;8.30;;
11141;SDS011;5625;50.122;19.864;2023-12-20T11:16:49;9.37;;;8.40;;
11141;SDS011;5625;50.122;19.864;2023-12-20T11:19:21;12.00;;;8.07;;
11141;SDS011;5625;50.122;19.864;2023-12-20T11:21:49;9.23;;;7.93;;
11141;SDS011;5625;50.122;19.864;2023-12-20T11:24:21;8.20;;;7.40;;
11141;SDS011;5625;50.122;19.864;2023-12-20T11:26:50;8.90;;;7.93;;
11141;SDS011;5625;50.122;19.864;2023-12-20T11:29:33;9.53;;;8.07;;
11141;SDS011;5625;50.122;19.864;2023-12-20T11:32:02;8.90;;;8.00;;
11141;SDS011;5625;50.122;19.864;2023-12-20T11:34:51;8.30;;;7.33;;
11141;SDS011;5625;50.122;19.864;2023-12-20T11:37:25;8.47;;;7.57;;
11141;SDS011;5625;50.122;19.864;2023-12-20T11:40:00;7.77;;;6.97;;
11141;SDS011;5625;50.122;19.864;2023-12-20T11:42:32;8.50;;;7.47;;
11141;SDS011;5625;50.122;19.864;2023-12-20T11:45:09;8.20;;;7.20;;
11141;SDS011;5625;50.122;19.864;2023-12-20T11:47:43;10.37;;;8.63;;
11141;SDS011;5625;50.122;19.864;2023-12-20T11:50:14;10.33;;;7.57;;
11141;SDS011;5625;50.122;19.864;2023-12-20T11:52:43;8.33;;;7.53;;
11141;SDS011;5625;50.122;19.864;2023-12-20T11:55:11;8.43;;;7.63;;
11141;SDS011;5625;50.122;19.864;2023-12-20T11:57:40;8.83;;;7.93;;
11141;SDS011;5625;50.122;19.864;2023-12-20T12:00:12;8.00;;;7.20;;
11141;SDS011;5625;50.122;19.864;2023-12-20T12:02:41;7.83;;;7.03;;
11141;SDS011;5625;50.122;19.864;2023-12-20T12:05:13;8.93;;;8.03;;
11141;SDS011;5625;50.122;19.864;2023-12-20T12:07:41;8.23;;;7.23;;
11141;SDS011;5625;50.122;19.864;2023-12-20T12:10:10;8.37;;;7.23;;
11141;SDS011;5625;50.122;19.864;2023-12-20T12:12:40;7.90;;;7.10;;
11141;SDS011;5625;50.122;19.864;2023-12-20T12:15:10;8.07;;;7.27;;
11141;SDS011;5625;50.122;19.864;2023-12-20T12:17:38;8.47;;;7.63;;
11141;SDS011;5625;50.122;19.864;2023-12-20T12:20:07;8.03;;;7.23;;
11141;SDS011;5625;50.122;19.864;2023-12-20T12:22:36;8.43;;;7.60;;
11141;SDS011;5625;50.122;19.864;2023-12-20T12:25:11;8.50;;;7.67;;
11141;SDS011;5625;50.122;19.864;2023-12-20T12:27:42;8.57;;;7.60;;
11141;SDS011;5625;50.122;19.864;2023-12-20T12:30:15;8.17;;;7.37;;
11141;SDS011;5625;50.122;19.864;2023-12-20T12:32:44;8.27;;;6.97;;
11141;SDS011;5625;50.122;19.864;2023-12-20T12:35:13;7.80;;;6.80;;
11141;SDS011;5625;50.122;19.864;2023-12-20T12:37:42;7.53;;;6.83;;
11141;SDS011;5625;50.122;19.864;2023-12-20T12:40:11;8.07;;;7.27;;
11141;SDS011;5625;50.122;19.864;2023-12-20T12:42:41;7.50;;;6.80;;
11141;SDS011;5625;50.122;19.864;2023-12-20T12:45:10;7.30;;;6.60;;
11141;SDS011;5625;50.122;19.864;2023-12-20T12:47:40;7.10;;;6.40;;
11141;SDS011;5625;50.122;19.864;2023-12-20T12:50:09;7.20;;;6.50;;
11141;SDS011;5625;50.122;19.864;2023-12-20T12:52:37;8.33;;;7.53;;
11141;SDS011;5625;50.122;19.864;2023-12-20T12:55:06;7.33;;;6.63;;
11141;SDS011;5625;50.122;19.864;2023-12-20T12:57:34;7.03;;;6.33;;
11141;SDS011;5625;50.122;19.864;2023-12-20T13:00:03;7.93;;;7.13;;
11141;SDS011;5625;50.122;19.864;2023-12-20T13:02:36;7.77;;;7.07;;
11141;SDS011;5625;50.122;19.864;2023-12-20T13:05:08;8.10;;;7.10;;
11141;SDS011;5625;50.122;19.864;2023-12-20T13:07:36;7.07;;;6.37;;
11141;SDS011;5625;50.122;19.864;2023-12-20T13:10:06;7.30;;;6.57;;
11141;SDS011;5625;50.122;19.864;2023-12-20T13:12:37;7.53;;;6.80;;
11141;SDS011;5625;50.122;19.864;2023-12-20T13:15:05;7.33;;;6.63;;
11141;SDS011;5625;50.122;19.864;2023-12-20T13:17:36;6.80;;;6.10;;
11141;SDS011;5625;50.122;19.864;2023-12-20T13:20:05;6.97;;;6.27;;
11141;SDS011;5625;50.122;19.864;2023-12-20T13:22:34;8.17;;;6.93;;
11141;SDS011;5625;50.122;19.864;2023-12-20T13:25:02;7.87;;;7.07;;
11141;SDS011;5625;50.122;19.864;2023-12-20T13:27:31;8.37;;;7.43;;
11141;SDS011;5625;50.122;19.864;2023-12-20T13:29:59;8.73;;;7.93;;
11141;SDS011;5625;50.122;19.864;2023-12-20T13:32:27;10.70;;;7.87;;
11141;SDS011;5625;50.122;19.864;2023-12-20T13:35:00;9.47;;;7.80;;
11141;SDS011;5625;50.122;19.864;2023-12-20T13:37:30;8.70;;;7.90;;
11141;SDS011;5625;50.122;19.864;2023-12-20T13:39:58;10.03;;;8.57;;
11141;SDS011;5625;50.122;19.864;2023-12-20T13:42:29;10.23;;;9.13;;
11141;SDS011;5625;50.122;19.864;2023-12-20T13:44:57;12.07;;;9.87;;
11141;SDS011;5625;50.122;19.864;2023-12-20T13:47:28;9.77;;;8.73;;
11141;SDS011;5625;50.122;19.864;2023-12-20T13:49:56;13.00;;;9.40;;
11141;SDS011;5625;50.122;19.864;2023-12-20T13:52:26;10.47;;;8.87;;
11141;SDS011;5625;50.122;19.864;2023-12-20T13:54:54;11.13;;;9.67;;
11141;SDS011;5625;50.122;19.864;2023-12-20T13:57:22;11.77;;;10.03;;
11141;SDS011;5625;50.122;19.864;2023-12-20T14:00:10;12.50;;;9.23;;
11141;SDS011;5625;50.122;19.864;2023-12-20T14:02:41;11.23;;;9.23;;
11141;SDS011;5625;50.122;19.864;2023-12-20T14:05:09;10.53;;;9.20;;
11141;SDS011;5625;50.122;19.864;2023-12-20T14:07:39;10.63;;;9.30;;
11141;SDS011;5625;50.122;19.864;2023-12-20T14:10:07;11.20;;;9.20;;
11141;SDS011;5625;50.122;19.864;2023-12-20T14:12:36;10.80;;;8.93;;
11141;SDS011;5625;50.122;19.864;2023-12-20T14:15:08;12.53;;;9.70;;
11141;SDS011;5625;50.122;19.864;2023-12-20T14:17:37;11.33;;;8.70;;
11141;SDS011;5625;50.122;19.864;2023-12-20T14:20:06;11.23;;;8.87;;
11141;SDS011;5625;50.122;19.864;2023-12-20T14:22:35;9.53;;;8.50;;
11141;SDS011;5625;50.122;19.864;2023-12-20T14:25:07;9.10;;;8.20;;
11141;SDS011;5625;50.122;19.864;2023-12-20T14:27:37;9.57;;;8.10;;
11141;SDS011;5625;50.122;19.864;2023-12-20T14:30:06;9.60;;;8.60;;
11141;SDS011;5625;50.122;19.864;2023-12-20T14:32:35;9.70;;;8.80;;
11141;SDS011;5625;50.122;19.864;2023-12-20T14:35:05;9.70;;;8.67;;
11141;SDS011;5625;50.122;19.864;2023-12-20T14:37:34;12.93;;;10.23;;
11141;SDS011;5625;50.122;19.864;2023-12-20T14:40:07;10.67;;;9.50;;
11141;SDS011;5625;50.122;19.864;2023-12-20T14:42:41;10.60;;;9.20;;
11141;SDS011;5625;50.122;19.864;2023-12-20T14:45:09;11.70;;;10.10;;
11141;SDS011;5625;50.122;19.864;2023-12-20T14:47:39;11.97;;;9.90;;
11141;SDS011;5625;50.122;19.864;2023-12-20T14:50:08;10.90;;;9.80;;
11141;SDS011;5625;50.122;19.864;2023-12-20T14:52:37;12.40;;;10.87;;
11141;SDS011;5625;50.122;19.864;2023-12-20T14:55:06;12.63;;;10.37;;
11141;SDS011;5625;50.122;19.864;2023-12-20T14:57:35;11.73;;;10.13;;